• Join FlightAware (Why Join?)
  • Login
  • US Flag 
08:04AM EDT


 

Airport Tracker/Info


-or-


 

Live Flight TrackerFlight Track Log ✈ FIN666 ✈ 14-Oct-2013 ✈ EKCH / CPH - EFHK / HEL

Flight Track Log - Related Links

Times and Time Zones

All times are in EDT time to prevent confusion due to time zone crossing. See the FIN666 flight status page for this flight to view local times or setup timezone preferences in your user account.

Time Position Orientation Groundspeed Altitude Reporting Facility
EDT Latitude Longitude Course Direction KTS MPH feet Rate Location/Type
07:25AM 55.8389 13.1126 49° Northeast  Level Estimated
07:26AM 55.9122 13.2660 50° Northeast  Level Estimated
07:27AM 55.9853 13.4199 50° Northeast  Level Estimated
07:28AM 56.0582 13.5744 50° Northeast  Level Estimated
07:29AM 56.1309 13.7295 50° Northeast  Level Estimated
07:30AM 56.2034 13.8852 50° Northeast  Level Estimated
07:31AM 56.2757 14.0415 50° Northeast  Level Estimated
07:32AM 56.3478 14.1984 50° Northeast  Level Estimated
07:33AM 56.4197 14.3559 50° Northeast  Level Estimated
07:34AM 56.4915 14.5139 51° Northeast  Level Estimated
07:35AM 56.5630 14.6726 51° Northeast  Level Estimated
07:36AM 56.6343 14.8319 51° Northeast  Level Estimated
07:37AM 56.7054 14.9917 51° Northeast  Level Estimated
07:38AM 56.7763 15.1522 51° Northeast  Level Estimated
07:39AM 56.8470 15.3133 51° Northeast  Level Estimated
07:40AM 56.9175 15.4750 51° Northeast  Level Estimated
07:41AM 56.9878 15.6373 51° Northeast  Level Estimated
07:42AM 57.0578 15.8002 52° Northeast  Level Estimated
07:43AM 57.1277 15.9637 52° Northeast  Level Estimated
07:44AM 57.1973 16.1278 52° Northeast  Level Estimated
07:45AM 57.2668 16.2926 52° Northeast  Level Estimated
07:46AM 57.3360 16.4580 52° Northeast  Level Estimated
07:47AM 57.4049 16.6240 52° Northeast  Level Estimated
07:48AM 57.4718 16.7860 52° Northeast  Level Estimated
07:49AM 57.5385 16.9487 53° Northeast  Level Estimated
07:50AM 57.6050 17.1119 53° Northeast  Level Estimated
07:51AM 57.6712 17.2758 53° Northeast  Level Estimated
07:52AM 57.7373 17.4402 53° Northeast  Level Estimated
07:53AM 57.8031 17.6053 53° Northeast  Level Estimated
07:54AM 57.8688 17.7709 53° Northeast  Level Estimated
07:55AM 57.9342 17.9372 53° Northeast  Level Estimated
07:56AM 57.9994 18.1040 54° Northeast  Level Estimated
07:57AM 58.0643 18.2715 54° Northeast  Level Estimated
07:58AM 58.1291 18.4396 54° Northeast  Level Estimated
07:59AM 58.1936 18.6082 54° Northeast  Level Estimated
08:00AM 58.2579 18.7775 54° Northeast  Level Estimated
08:01AM 58.3220 18.9474 54° Northeast  Level Estimated
08:02AM 58.3858 19.1180 54° Northeast  Level Estimated
08:03AM 58.4495 19.2891 55° Northeast  Level Estimated
08:04AM 58.5129 19.4609 55° Northeast  Level Estimated
08:05AM 58.5760 19.6332 55° Northeast  Level Estimated
08:06AM 58.6389 19.8063 55° Northeast  Level Estimated
08:07AM 58.7016 19.9799 55° Northeast  Level Estimated
08:08AM 58.7641 20.1541 55° Northeast  Level Estimated
08:09AM 58.8263 20.3290 55° Northeast  Level Estimated
08:10AM 58.8883 20.5045 56° Northeast  Level Estimated
08:11AM 58.9501 20.6807 56° Northeast  Level Estimated
08:12AM 59.0116 20.8574 56° Northeast  Level Estimated
08:13AM 59.0729 21.0348 56° Northeast  Level Estimated
08:14AM 59.1339 21.2129 56° Northeast  Level Estimated
08:15AM 59.1947 21.3915 56° Northeast  Level Estimated
08:16AM 59.2552 21.5708 57° Northeast  Level Estimated
08:17AM 59.3155 21.7508 57° Northeast  Level Estimated
08:18AM 59.3755 21.9314 57° Northeast  Level Estimated
08:19AM 59.4353 22.1126 57° Northeast  Level Estimated
08:20AM 59.4949 22.2944 57° Northeast  Level Estimated
08:21AM 59.5542 22.4769 57° Northeast  Level Estimated
08:22AM 59.6132 22.6601 57° Northeast  Level Estimated
08:23AM 59.6720 22.8439 58° Northeast  Level Estimated
08:24AM 59.7305 23.0283 58° Northeast  Level Estimated
08:25AM 59.7888 23.2134 58° Northeast  Level Estimated
08:26AM 59.8468 23.3991 58° Northeast  Level Estimated
08:27AM 59.9045 23.5854 58° Northeast  Level Estimated
08:28AM 59.9620 23.7725 58° Northeast  Level Estimated
08:29AM 60.0192 23.9601 59° Northeast  Level Estimated
08:30AM 60.0761 24.1484 59° Northeast  Level Estimated
08:31AM 60.1328 24.3374 59° Northeast  Level Estimated
08:32AM 60.1892 24.5270 59° Northeast  Level Estimated
08:33AM 60.2453 24.7173 59° Northeast  Level Estimated
08:34AM 60.3012 24.9082 59° Northeast  Level Estimated
08:35AM 60.3172 24.9633 60° Northeast  Level Estimated
08:36AM 60.3172 24.9633 37° Northeast  Level Estimated
08:37AM 60.3172 24.9633 37° Northeast  Level Estimated
08:38AM 60.3172 24.9633 37° Northeast  Level Estimated
08:39AM 60.3172 24.9633 37° Northeast  Level Estimated
08:40AM 60.3172 24.9633 37° Northeast  Level Estimated
08:41AM 60.3172 24.9633 37° Northeast  Level Estimated
08:42AM 60.3172 24.9633 37° Northeast  Level Estimated
08:43AM 60.3172 24.9633 37° Northeast  Level Estimated
08:44AM 60.3172 24.9633 37° Northeast  Level Estimated
08:45AM 60.3172 24.9633 37° Northeast  Level Estimated